createdAt,value
2019-01-06T00:01:06.014Z,2.24
2019-01-06T00:03:55.549Z,2.27
2019-01-06T00:06:44.681Z,2.24
2019-01-06T00:09:51.898Z,2.30
2019-01-06T00:12:31.975Z,2.30
2019-01-06T00:15:18.446Z,2.31
2019-01-06T00:18:05.975Z,2.27
2019-01-06T00:21:04.488Z,2.27
2019-01-06T00:23:52.410Z,2.21
2019-01-06T00:26:56.381Z,2.21
2019-01-06T00:29:48.208Z,2.22
2019-01-06T00:32:36.498Z,2.24
2019-01-06T00:35:30.072Z,2.21
2019-01-06T00:38:34.712Z,2.24
2019-01-06T00:41:24.143Z,2.22
2019-01-06T00:44:28.138Z,2.21
2019-01-06T00:47:28.832Z,2.21
2019-01-06T00:50:30.748Z,2.20
2019-01-06T00:53:23.017Z,2.15
2019-01-06T00:56:13.975Z,2.15
2019-01-06T00:59:01.176Z,2.16
2019-01-06T01:01:58.574Z,2.16
2019-01-06T01:05:03.728Z,2.13
2019-01-06T01:07:52.378Z,2.15
2019-01-06T01:10:50.328Z,2.15
2019-01-06T01:13:41.659Z,2.19
2019-01-06T01:16:26.256Z,2.10
2019-01-06T01:19:21.708Z,2.09
2019-01-06T01:22:07.510Z,2.14
2019-01-06T01:25:03.709Z,2.09
2019-01-06T01:27:55.855Z,2.00
2019-01-06T01:30:43.817Z,2.04
2019-01-06T01:33:36.253Z,2.07
2019-01-06T01:36:20.467Z,2.09
2019-01-06T01:39:08.575Z,2.10
2019-01-06T01:42:06.277Z,2.09
2019-01-06T01:45:01.665Z,2.11
2019-01-06T01:47:49.628Z,2.09
2019-01-06T01:50:41.739Z,2.07
2019-01-06T01:53:43.643Z,2.08
2019-01-06T01:56:48.119Z,2.11
2019-01-06T01:59:43.316Z,2.06
2019-01-06T02:02:41.573Z,2.03
2019-01-06T02:05:49.151Z,2.04
2019-01-06T02:08:37.058Z,1.95
2019-01-06T02:11:35.429Z,2.00
2019-01-06T02:14:22.942Z,1.97
2019-01-06T02:17:21.106Z,1.93
2019-01-06T02:20:06.568Z,1.92
2019-01-06T02:23:14.681Z,1.97
2019-01-06T02:26:12.477Z,1.96
2019-01-06T02:29:00.468Z,1.91
2019-01-06T02:32:04.206Z,1.88
2019-01-06T02:35:05.583Z,1.91
2019-01-06T02:37:53.264Z,1.84
2019-01-06T02:40:42.482Z,1.85
2019-01-06T02:43:30.428Z,1.84
2019-01-06T02:46:19.689Z,1.81
2019-01-06T02:49:07.706Z,1.83
2019-01-06T02:51:55.970Z,1.89
2019-01-06T02:54:50.981Z,1.83
2019-01-06T02:57:49.489Z,1.81
2019-01-06T03:03:34.755Z,1.73
2019-01-06T03:06:36.235Z,1.79
2019-01-06T03:09:33.304Z,1.76
2019-01-06T03:12:25.371Z,1.75
2019-01-06T03:15:21.236Z,1.71
2019-01-06T03:18:13.689Z,1.65
2019-01-06T03:21:15.209Z,1.64
2019-01-06T03:24:02.984Z,1.68
2019-01-06T03:26:51.378Z,1.65
2019-01-06T03:29:58.505Z,1.62
2019-01-06T03:32:50.998Z,1.61
2019-01-06T03:35:41.999Z,1.59
2019-01-06T03:38:40.457Z,1.62
2019-01-06T03:41:41.957Z,1.58
2019-01-06T03:44:29.136Z,1.63
2019-01-06T03:47:14.113Z,1.60
2019-01-06T03:50:01.858Z,1.55
2019-01-06T03:52:47.713Z,1.56
2019-01-06T03:55:43.262Z,1.57
2019-01-06T03:58:31.161Z,1.59
2019-01-06T04:01:19.368Z,1.58
2019-01-06T04:04:07.441Z,1.57
2019-01-06T04:06:59.627Z,1.58
2019-01-06T04:09:51.575Z,1.59
2019-01-06T04:12:39.830Z,1.66
2019-01-06T04:15:25.773Z,1.64
2019-01-06T04:18:17.130Z,1.56
2019-01-06T04:21:05.475Z,1.57
2019-01-06T04:23:58.133Z,1.63
2019-01-06T04:26:58.153Z,1.57
2019-01-06T04:29:47.599Z,1.58
2019-01-06T04:32:46.235Z,1.56
2019-01-06T04:35:35.744Z,1.55
2019-01-06T04:38:24.002Z,1.56
2019-01-06T04:41:32.447Z,1.58
2019-01-06T04:44:27.690Z,1.56
2019-01-06T04:47:17.248Z,1.54
2019-01-06T04:50:20.194Z,1.57
2019-01-06T04:53:12.497Z,1.58
2019-01-06T04:56:04.294Z,1.53
2019-01-06T04:58:52.306Z,1.56
2019-01-06T05:01:44.351Z,1.58
2019-01-06T05:04:51.753Z,1.55
2019-01-06T05:07:41.286Z,1.56
2019-01-06T05:10:30.568Z,1.54
2019-01-06T05:13:19.742Z,1.57
2019-01-06T05:16:07.970Z,1.57
2019-01-06T05:18:56.436Z,1.58
2019-01-06T05:21:44.233Z,1.58
2019-01-06T05:24:33.411Z,1.54
2019-01-06T05:27:25.703Z,1.59
2019-01-06T05:30:27.944Z,1.57
2019-01-06T05:33:16.205Z,1.60
2019-01-06T05:36:03.908Z,1.59
2019-01-06T05:38:51.940Z,1.60
2019-01-06T05:41:31.373Z,1.59
2019-01-06T05:44:14.140Z,1.58
2019-01-06T05:47:20.728Z,1.62
2019-01-06T05:50:08.757Z,1.65
2019-01-06T05:52:56.722Z,1.63
2019-01-06T05:55:49.631Z,1.62
2019-01-06T05:58:57.277Z,1.65
2019-01-06T06:01:42.448Z,1.64
2019-01-06T06:04:30.346Z,1.65
2019-01-06T06:07:18.234Z,1.62
2019-01-06T06:10:17.648Z,1.63
2019-01-06T06:13:04.260Z,1.64
2019-01-06T06:16:08.630Z,1.63
2019-01-06T06:18:57.834Z,1.61
2019-01-06T06:21:52.932Z,1.64
2019-01-06T06:24:45.618Z,1.66
2019-01-06T06:27:30.202Z,1.62
2019-01-06T06:30:28.919Z,1.61
2019-01-06T06:33:18.366Z,1.62
2019-01-06T06:36:06.133Z,1.56
2019-01-06T06:38:57.871Z,1.54
2019-01-06T06:41:56.586Z,1.54
2019-01-06T06:44:44.138Z,1.45
2019-01-06T06:47:42.456Z,1.42
2019-01-06T06:50:42.933Z,1.41
2019-01-06T06:53:43.372Z,1.37
2019-01-06T06:56:35.064Z,1.34
2019-01-06T06:59:29.094Z,1.39
2019-01-06T07:02:53.912Z,1.36
2019-01-06T07:05:46.110Z,1.31
2019-01-06T07:08:35.338Z,1.30
2019-01-06T07:11:39.913Z,1.29
2019-01-06T07:14:29.400Z,1.29
2019-01-06T07:17:52.492Z,1.29
2019-01-06T07:20:40.455Z,1.28
2019-01-06T07:23:41.448Z,1.25
2019-01-06T07:26:29.485Z,1.25
2019-01-06T07:29:18.584Z,1.26
2019-01-06T07:32:06.211Z,1.28
2019-01-06T07:34:58.494Z,1.34
2019-01-06T07:37:47.650Z,1.30
2019-01-06T07:40:35.966Z,1.35
2019-01-06T07:43:27.196Z,1.41
2019-01-06T07:46:22.522Z,1.46
2019-01-06T07:49:11.674Z,1.50
2019-01-06T07:52:07.271Z,1.55
2019-01-06T07:55:11.327Z,1.53
2019-01-06T07:58:19.130Z,1.48
2019-01-06T08:01:26.432Z,1.47
2019-01-06T08:04:14.631Z,1.59
2019-01-06T08:07:09.789Z,1.47
2019-01-06T08:09:57.895Z,1.40
2019-01-06T08:12:39.191Z,1.40
2019-01-06T08:15:27.065Z,1.29
2019-01-06T08:18:18.923Z,1.24
2019-01-06T08:21:07.061Z,1.32
2019-01-06T08:24:05.309Z,1.35
2019-01-06T08:27:00.654Z,1.35
2019-01-06T08:29:55.903Z,1.42
2019-01-06T08:32:45.281Z,1.38
2019-01-06T08:35:34.555Z,1.34
2019-01-06T08:38:22.444Z,1.24
2019-01-06T08:41:20.562Z,1.29
2019-01-06T08:44:08.479Z,1.30
2019-01-06T08:46:56.158Z,1.28
2019-01-06T08:49:48.218Z,1.28
2019-01-06T08:52:37.352Z,1.27
2019-01-06T08:55:27.749Z,1.36
2019-01-06T08:58:15.813Z,1.35
2019-01-06T09:01:05.318Z,1.37
2019-01-06T09:03:53.201Z,1.42
2019-01-06T09:07:00.870Z,1.47
2019-01-06T09:10:01.045Z,1.57
2019-01-06T09:13:03.715Z,1.53
2019-01-06T09:15:51.881Z,1.36
2019-01-06T09:18:44.357Z,1.29
2019-01-06T09:21:32.218Z,1.33
2019-01-06T09:24:12.402Z,1.31
2019-01-06T09:27:07.144Z,1.38
2019-01-06T09:30:11.770Z,1.38
2019-01-06T09:33:08.835Z,1.39
2019-01-06T09:35:57.178Z,1.43
2019-01-06T09:38:46.161Z,1.46
2019-01-06T09:41:38.255Z,1.41
2019-01-06T09:44:26.630Z,1.38
2019-01-06T09:47:25.204Z,1.40
2019-01-06T09:50:17.982Z,1.52
2019-01-06T09:53:06.109Z,1.45
2019-01-06T09:55:54.453Z,1.48
2019-01-06T09:58:42.525Z,1.40
2019-01-06T10:01:34.891Z,1.38
2019-01-06T10:04:42.779Z,1.39
2019-01-06T10:07:43.679Z,1.47
2019-01-06T10:10:48.118Z,1.39
2019-01-06T10:13:35.791Z,1.36
2019-01-06T10:16:43.514Z,1.39
2019-01-06T10:19:44.435Z,1.39
2019-01-06T10:22:33.622Z,1.36
2019-01-06T10:25:21.569Z,1.38
2019-01-06T10:28:16.710Z,1.36
2019-01-06T10:31:12.165Z,1.41
2019-01-06T10:34:11.522Z,1.42
2019-01-06T10:37:09.537Z,1.40
2019-01-06T10:40:01.709Z,1.45
2019-01-06T10:43:03.405Z,1.43
2019-01-06T10:46:01.460Z,1.44
2019-01-06T10:48:49.428Z,1.38
2019-01-06T10:51:37.517Z,1.42
2019-01-06T10:54:25.031Z,1.43
2019-01-06T10:57:30.046Z,1.40
2019-01-06T11:00:28.467Z,1.44
2019-01-06T11:03:23.308Z,1.43
2019-01-06T11:06:12.462Z,1.39
2019-01-06T11:09:22.700Z,1.45
2019-01-06T11:12:12.136Z,1.48
2019-01-06T11:14:57.279Z,1.48
2019-01-06T11:17:52.643Z,1.82
2019-01-06T11:20:41.042Z,2.01
2019-01-06T11:23:39.659Z,1.63
2019-01-06T11:26:27.933Z,1.58
2019-01-06T11:29:32.686Z,1.54
2019-01-06T11:32:20.812Z,1.47
2019-01-06T11:35:10.322Z,1.48
2019-01-06T11:38:02.859Z,1.43
2019-01-06T11:41:08.155Z,1.47
2019-01-06T11:44:10.908Z,3.39
2019-01-06T11:47:06.608Z,3.06
2019-01-06T11:49:55.618Z,2.08
2019-01-06T11:52:54.176Z,1.89
2019-01-06T11:55:46.405Z,1.97
2019-01-06T11:58:34.206Z,1.67
2019-01-06T12:01:26.790Z,1.59
2019-01-06T12:04:31.478Z,1.65
2019-01-06T12:07:21.710Z,1.65
2019-01-06T12:10:09.484Z,1.58
2019-01-06T12:12:58.775Z,1.49
2019-01-06T12:15:46.993Z,1.58
2019-01-06T12:18:36.397Z,1.59
2019-01-06T12:21:24.993Z,1.60
2019-01-06T12:24:19.557Z,1.60
2019-01-06T12:27:11.483Z,1.66
2019-01-06T12:30:03.900Z,1.66
2019-01-06T12:32:59.659Z,1.75
2019-01-06T12:35:49.349Z,1.81
2019-01-06T12:38:37.273Z,1.88
2019-01-06T12:41:29.639Z,1.85
2019-01-06T12:44:34.533Z,1.75
2019-01-06T12:47:38.045Z,1.79
2019-01-06T12:50:31.844Z,2.06
2019-01-06T12:53:20.070Z,1.81
2019-01-06T12:56:21.176Z,1.81
2019-01-06T12:59:10.540Z,1.78
2019-01-06T13:01:59.435Z,1.75
2019-01-06T13:04:51.905Z,1.70
2019-01-06T13:07:40.149Z,1.73
2019-01-06T13:10:47.607Z,1.76
2019-01-06T13:13:37.312Z,1.75
2019-01-06T13:16:25.638Z,1.78
2019-01-06T13:19:08.025Z,1.78
2019-01-06T13:22:03.144Z,1.78
2019-01-06T13:24:51.102Z,1.72
2019-01-06T13:27:40.802Z,1.69
2019-01-06T13:30:33.565Z,1.69
2019-01-06T13:33:22.879Z,1.73
2019-01-06T13:36:11.505Z,1.74
2019-01-06T13:39:09.763Z,1.64
2019-01-06T13:41:57.696Z,1.65
2019-01-06T13:44:47.502Z,1.69
2019-01-06T13:47:35.344Z,1.73
2019-01-06T13:50:24.023Z,1.72
2019-01-06T13:53:16.236Z,1.65
2019-01-06T13:56:11.479Z,1.63
2019-01-06T13:58:59.055Z,1.62
2019-01-06T14:02:06.849Z,1.61
2019-01-06T14:05:14.867Z,1.63
2019-01-06T14:08:19.213Z,1.63
2019-01-06T14:11:17.234Z,1.58
2019-01-06T14:14:07.581Z,1.55
2019-01-06T14:16:55.262Z,1.69
2019-01-06T14:19:50.552Z,1.72
2019-01-06T14:22:45.494Z,1.74
2019-01-06T14:25:35.762Z,1.61
2019-01-06T14:28:30.722Z,1.61
2019-01-06T14:31:30.391Z,1.63
2019-01-06T14:34:19.200Z,1.62
2019-01-06T14:37:26.935Z,1.65
2019-01-06T14:40:14.213Z,1.67
2019-01-06T14:43:02.325Z,1.60
2019-01-06T14:45:54.364Z,1.60
2019-01-06T14:48:42.295Z,1.58
2019-01-06T14:51:46.509Z,1.48
2019-01-06T14:54:45.051Z,1.43
2019-01-06T14:57:43.236Z,1.38
2019-01-06T15:00:50.659Z,1.47
2019-01-06T15:03:40.578Z,1.45
2019-01-06T15:06:28.389Z,1.58
2019-01-06T15:09:23.178Z,1.55
2019-01-06T15:12:28.105Z,1.66
2019-01-06T15:15:20.578Z,1.75
2019-01-06T15:18:08.319Z,1.74
2019-01-06T15:20:56.080Z,1.70
2019-01-06T15:23:42.107Z,1.68
2019-01-06T15:26:39.957Z,1.70
2019-01-06T15:29:32.775Z,1.69
2019-01-06T15:32:19.652Z,1.68
2019-01-06T15:35:19.086Z,1.75
2019-01-06T15:38:04.012Z,1.73
2019-01-06T15:40:53.602Z,1.47
2019-01-06T15:43:51.938Z,1.43
2019-01-06T15:46:51.318Z,1.44
2019-01-06T15:49:39.127Z,1.41
2019-01-06T15:52:27.061Z,1.25
2019-01-06T15:55:10.845Z,1.19
2019-01-06T15:58:06.201Z,1.15
2019-01-06T16:00:56.670Z,1.02
2019-01-06T16:04:01.369Z,1.02
2019-01-06T16:06:57.452Z,1.06
2019-01-06T16:09:46.788Z,0.93
2019-01-06T16:12:37.426Z,1.07
2019-01-06T16:15:35.354Z,1.08
2019-01-06T16:18:23.618Z,1.12
2019-01-06T16:21:25.209Z,1.24
2019-01-06T16:24:27.009Z,1.10
2019-01-06T16:27:28.170Z,0.93
2019-01-06T16:30:24.815Z,1.08
2019-01-06T16:33:20.427Z,1.03
2019-01-06T16:36:18.436Z,0.98
2019-01-06T16:39:27.487Z,0.97
2019-01-06T16:42:22.520Z,0.94
2019-01-06T16:45:14.460Z,0.95
2019-01-06T16:48:12.718Z,1.11
2019-01-06T16:51:01.035Z,1.16
2019-01-06T16:53:53.792Z,1.21
2019-01-06T16:56:42.009Z,1.15
2019-01-06T16:59:34.400Z,1.15
2019-01-06T17:02:23.638Z,1.24
2019-01-06T17:05:26.027Z,1.28
2019-01-06T17:08:16.131Z,1.25
2019-01-06T17:11:08.087Z,1.19
2019-01-06T17:14:08.356Z,1.12
2019-01-06T17:17:06.558Z,1.23
2019-01-06T17:19:58.697Z,1.37
2019-01-06T17:22:56.716Z,1.23
2019-01-06T17:25:41.184Z,1.16
2019-01-06T17:28:33.043Z,1.16
2019-01-06T17:31:23.064Z,1.12
2019-01-06T17:34:24.246Z,1.14
2019-01-06T17:37:12.731Z,1.10
2019-01-06T17:40:10.931Z,1.13
2019-01-06T17:42:59.155Z,1.11
2019-01-06T17:46:00.634Z,1.08
2019-01-06T17:48:58.806Z,1.08
2019-01-06T17:51:47.042Z,1.13
2019-01-06T17:54:37.118Z,1.20
2019-01-06T17:57:24.895Z,1.27
2019-01-06T18:00:10.980Z,1.11
2019-01-06T18:06:02.602Z,1.21
2019-01-06T18:09:00.761Z,1.20
2019-01-06T18:11:59.414Z,1.16
2019-01-06T18:15:06.578Z,1.13
2019-01-06T18:18:04.924Z,1.12
2019-01-06T18:20:53.213Z,1.20
2019-01-06T18:24:01.173Z,1.22
2019-01-06T18:26:49.217Z,1.23
2019-01-06T18:29:50.743Z,1.24
2019-01-06T18:32:42.949Z,1.28
2019-01-06T18:35:30.957Z,1.16
2019-01-06T18:38:26.465Z,1.20
2019-01-06T18:41:15.751Z,1.24
2019-01-06T18:44:17.283Z,1.30
2019-01-06T18:47:15.870Z,1.34
2019-01-06T18:50:07.015Z,1.34
2019-01-06T18:52:59.401Z,1.22
2019-01-06T18:55:46.925Z,1.25
2019-01-06T18:58:31.269Z,1.24
2019-01-06T19:01:20.473Z,1.22
2019-01-06T19:04:19.842Z,1.24
2019-01-06T19:07:02.363Z,1.32
2019-01-06T19:09:57.837Z,1.35
2019-01-06T19:12:45.917Z,1.28
2019-01-06T19:15:34.212Z,1.31
2019-01-06T19:18:23.366Z,1.28
2019-01-06T19:21:21.733Z,1.34
2019-01-06T19:24:17.021Z,1.41
2019-01-06T19:27:05.315Z,1.42
2019-01-06T19:30:06.340Z,1.45
2019-01-06T19:33:04.921Z,1.47
2019-01-06T19:36:06.673Z,1.49
2019-01-06T19:39:05.422Z,1.51
2019-01-06T19:42:09.907Z,1.51
2019-01-06T19:45:11.804Z,1.52
2019-01-06T19:48:01.270Z,1.52
2019-01-06T19:50:59.848Z,1.53
2019-01-06T19:53:49.487Z,1.54
2019-01-06T19:56:38.903Z,1.53
2019-01-06T19:59:34.222Z,1.53
2019-01-06T20:02:26.777Z,1.53
2019-01-06T20:05:28.050Z,1.53
2019-01-06T20:08:16.797Z,1.48
2019-01-06T20:11:13.490Z,1.51
2019-01-06T20:14:02.756Z,1.53
2019-01-06T20:17:04.294Z,2.03
2019-01-06T20:19:50.604Z,3.22
2019-01-06T20:22:36.052Z,4.19
2019-01-06T20:25:37.402Z,4.03
2019-01-06T20:28:35.988Z,3.68
2019-01-06T20:31:28.032Z,3.23
2019-01-06T20:34:17.492Z,2.60
2019-01-06T20:37:19.063Z,2.60
2019-01-06T20:40:23.560Z,2.52
2019-01-06T20:43:11.810Z,2.39
2019-01-06T20:45:59.900Z,2.29
2019-01-06T20:49:01.829Z,2.21
2019-01-06T20:52:06.949Z,2.13
2019-01-06T20:55:11.656Z,2.05
2019-01-06T20:58:02.301Z,2.00
2019-01-06T21:00:47.500Z,3.21
2019-01-06T21:03:37.137Z,3.58
2019-01-06T21:06:28.789Z,3.15
2019-01-06T21:09:24.325Z,2.59
2019-01-06T21:12:16.504Z,2.59
2019-01-06T21:15:03.971Z,2.45
2019-01-06T21:17:56.633Z,2.32
2019-01-06T21:20:44.575Z,2.21
2019-01-06T21:23:36.997Z,2.11
2019-01-06T21:26:29.647Z,2.03
2019-01-06T21:29:18.984Z,1.92
2019-01-06T21:32:08.468Z,1.87
2019-01-06T21:35:08.885Z,1.82
2019-01-06T21:38:10.127Z,1.79
2019-01-06T21:40:59.687Z,1.76
2019-01-06T21:44:03.998Z,1.71
2019-01-06T21:46:53.837Z,1.68
2019-01-06T21:49:43.358Z,1.64
2019-01-06T21:52:38.367Z,1.70
2019-01-06T21:55:36.979Z,1.63
2019-01-06T21:58:29.735Z,1.61
2019-01-06T22:01:20.555Z,1.61
2019-01-06T22:04:18.919Z,1.59
2019-01-06T22:10:09.114Z,1.50
2019-01-06T22:12:58.698Z,1.49
2019-01-06T22:15:46.800Z,1.47
2019-01-06T22:18:39.097Z,1.45
2019-01-06T22:21:30.444Z,1.46
2019-01-06T22:24:28.584Z,1.42
2019-01-06T22:27:35.845Z,1.41
2019-01-06T22:30:24.338Z,1.36
2019-01-06T22:33:17.063Z,1.28
2019-01-06T22:36:05.281Z,1.29
2019-01-06T22:38:55.092Z,1.32
2019-01-06T22:41:56.933Z,1.34
2019-01-06T22:44:51.257Z,1.32
2019-01-06T22:47:57.747Z,1.29
2019-01-06T22:51:02.495Z,1.32
2019-01-06T22:53:50.255Z,1.28
2019-01-06T22:56:40.515Z,1.28
2019-01-06T22:59:28.054Z,1.30
2019-01-06T23:02:17.782Z,1.31
2019-01-06T23:05:01.963Z,1.31
2019-01-06T23:08:00.986Z,1.33
2019-01-06T23:10:49.172Z,1.33
2019-01-06T23:13:39.173Z,1.34
2019-01-06T23:16:26.926Z,1.34
2019-01-06T23:19:15.132Z,1.32
2019-01-06T23:22:03.455Z,1.33
2019-01-06T23:24:51.068Z,1.34
2019-01-06T23:27:39.353Z,1.34
2019-01-06T23:30:37.709Z,1.34
2019-01-06T23:33:27.289Z,1.34
2019-01-06T23:36:15.610Z,1.37
2019-01-06T23:39:03.089Z,1.28
2019-01-06T23:41:52.623Z,1.29
2019-01-06T23:44:44.462Z,1.26
2019-01-06T23:47:48.942Z,1.28
2019-01-06T23:50:44.151Z,1.26
2019-01-06T23:53:32.545Z,1.28
2019-01-06T23:56:27.768Z,1.26
2019-01-06T23:59:15.866Z,1.25
